Time;durP1;ratioP1;P1;durP2;ratioP2;P2;SDS_P1;SDS_P2;PMS_P1;PMS_P2;Temp;Humidity;BMP_temperature;BMP_pressure;BME280_temperature;BME280_humidity;BME280_pressure;Samples;Min_cycle;Max_cycle;Signal;HPM_P1;HPM_P2
2021/08/13 00:02:15;;;;;;;8.48;4.10;;;14.70;99.90;;;;;;6198734;23;20024;-80
2021/08/13 00:04:43;;;;;;;12.93;4.93;;;14.70;99.90;;;;;;6214009;23;20083;-82
2021/08/13 00:07:10;;;;;;;12.80;5.65;;;14.70;99.90;;;;;;6198639;23;20244;-80
2021/08/13 00:09:38;;;;;;;8.98;4.80;;;14.70;99.90;;;;;;6188868;23;20024;-82
2021/08/13 00:12:05;;;;;;;15.48;5.18;;;14.70;99.90;;;;;;6201871;22;20017;-79
2021/08/13 00:14:32;;;;;;;17.38;4.97;;;14.70;99.90;;;;;;6202160;23;20092;-82
2021/08/13 00:17:00;;;;;;;11.35;4.45;;;14.60;99.90;;;;;;6239312;23;20043;-82
2021/08/13 00:19:29;;;;;;;15.98;4.93;;;14.60;99.90;;;;;;6238107;23;20099;-81
2021/08/13 00:21:56;;;;;;;16.60;5.18;;;14.60;99.90;;;;;;6213862;23;20092;-82
2021/08/13 00:24:23;;;;;;;13.10;5.15;;;14.60;99.90;;;;;;6211734;23;20016;-79
2021/08/13 00:26:50;;;;;;;13.50;4.40;;;14.60;99.90;;;;;;6213864;23;20020;-82
2021/08/13 00:29:17;;;;;;;14.95;4.57;;;14.50;99.90;;;;;;6212659;23;20440;-82
2021/08/13 00:31:44;;;;;;;11.05;4.43;;;14.50;99.90;;;;;;6213563;23;20020;-82
2021/08/13 00:34:11;;;;;;;15.82;4.28;;;14.50;99.90;;;;;;6212567;23;20023;-81
2021/08/13 00:36:39;;;;;;;11.43;4.70;;;14.50;99.90;;;;;;6213722;23;20452;-82
2021/08/13 00:39:06;;;;;;;10.95;3.80;;;14.40;99.90;;;;;;6212946;23;20043;-82
2021/08/13 00:41:37;;;;;;;7.30;3.65;;;14.40;99.90;;;;;;6213597;23;20024;-82
2021/08/13 00:44:05;;;;;;;13.52;3.55;;;14.40;99.90;;;;;;6195868;23;20430;-82
2021/08/13 00:46:32;;;;;;;17.13;4.18;;;14.30;99.90;;;;;;6201072;23;20024;-81
2021/08/13 00:48:59;;;;;;;8.18;3.47;;;14.30;99.90;;;;;;6238434;23;20066;-81
2021/08/13 00:51:27;;;;;;;12.13;3.45;;;14.30;99.90;;;;;;6238110;23;20080;-82
2021/08/13 00:53:55;;;;;;;12.55;3.60;;;14.20;99.90;;;;;;6206330;23;20043;-83
2021/08/13 00:56:22;;;;;;;10.52;3.55;;;14.20;99.90;;;;;;6212616;23;20317;-81
2021/08/13 00:58:49;;;;;;;6.97;3.13;;;14.10;99.90;;;;;;6213688;23;20024;-82
2021/08/13 01:01:18;;;;;;;9.05;3.33;;;14.10;99.90;;;;;;6209445;23;20020;-81
2021/08/13 01:03:46;;;;;;;8.05;2.83;;;14.10;99.90;;;;;;6203581;23;20012;-82
2021/08/13 01:06:15;;;;;;;12.00;3.63;;;14.00;99.90;;;;;;6212405;23;20076;-81
2021/08/13 01:08:44;;;;;;;12.65;3.20;;;14.00;99.90;;;;;;6204091;23;20078;-82
2021/08/13 01:11:19;;;;;;;16.55;3.60;;;14.00;99.90;;;;;;6212458;23;20020;-82
2021/08/13 01:14:01;;;;;;;13.38;3.33;;;14.00;99.90;;;;;;6204335;23;20024;-79
2021/08/13 01:16:30;;;;;;;8.25;3.20;;;13.90;99.90;;;;;;6212565;23;20021;-82
2021/08/13 01:19:17;;;;;;;11.65;3.30;;;13.90;99.90;;;;;;6206978;23;20017;-81
2021/08/13 01:21:54;;;;;;;15.82;3.42;;;13.90;99.90;;;;;;6092164;23;20034;-82
2021/08/13 01:24:24;;;;;;;13.70;3.38;;;13.90;99.90;;;;;;6091844;23;20046;-80
2021/08/13 01:27:12;;;;;;;12.32;3.72;;;13.90;99.90;;;;;;6093339;23;20044;-80
2021/08/13 01:29:49;;;;;;;13.40;4.00;;;13.90;99.90;;;;;;6078816;23;20065;-80
2021/08/13 01:32:50;;;;;;;16.10;3.90;;;13.90;99.90;;;;;;6092507;23;20546;-82
2021/08/13 01:35:24;;;;;;;14.48;4.15;;;13.90;99.90;;;;;;6091950;23;20026;-82
2021/08/13 01:38:02;;;;;;;13.55;4.15;;;13.90;99.90;;;;;;6092364;23;20018;-82
2021/08/13 01:40:31;;;;;;;18.50;3.65;;;13.90;99.90;;;;;;6091978;23;20019;-82
2021/08/13 01:43:03;;;;;;;15.95;3.72;;;13.90;99.90;;;;;;6079144;23;20054;-82
2021/08/13 01:45:37;;;;;;;15.43;3.25;;;13.90;99.90;;;;;;6090969;23;20032;-79
2021/08/13 01:48:07;;;;;;;11.43;3.03;;;13.90;99.90;;;;;;6041045;23;20061;-79
2021/08/13 01:50:40;;;;;;;17.50;3.58;;;13.90;99.90;;;;;;6078972;23;20014;-80
2021/08/13 01:53:09;;;;;;;19.70;3.97;;;13.90;99.90;;;;;;6078737;23;20334;-82
2021/08/13 01:55:42;;;;;;;17.55;3.33;;;13.90;99.90;;;;;;6092966;23;20101;-81
2021/08/13 01:58:11;;;;;;;21.00;3.45;;;13.90;99.90;;;;;;6114857;23;20021;-80
2021/08/13 02:00:42;;;;;;;16.63;4.25;;;13.90;99.90;;;;;;6175648;23;20521;-82
2021/08/13 02:03:10;;;;;;;13.88;3.35;;;13.90;99.90;;;;;;6186563;23;20040;-82
2021/08/13 02:05:47;;;;;;;17.30;4.43;;;13.90;99.90;;;;;;6189830;23;20329;-81
2021/08/13 02:08:16;;;;;;;16.40;3.95;;;13.90;99.90;;;;;;6200050;23;20020;-82
2021/08/13 02:10:45;;;;;;;11.90;3.42;;;13.90;99.90;;;;;;6198405;23;20016;-82
2021/08/13 02:13:12;;;;;;;;;;;13.90;99.90;;;;;;6186984;23;20012;-82
2021/08/13 02:15:50;;;;;;;24.55;4.55;;;13.90;99.90;;;;;;6190856;23;20237;-82
2021/08/13 02:18:24;;;;;;;15.73;3.45;;;13.90;99.90;;;;;;6198880;23;20028;-80
2021/08/13 02:21:02;;;;;;;19.15;3.78;;;13.90;99.90;;;;;;6203759;23;20020;-82
2021/08/13 02:23:29;;;;;;;16.40;3.40;;;13.90;99.90;;;;;;6184921;23;20017;-82
2021/08/13 02:25:57;;;;;;;16.30;3.38;;;13.80;99.90;;;;;;6194079;23;20361;-82
2021/08/13 02:28:25;;;;;;;13.30;3.10;;;13.80;99.90;;;;;;6201859;23;20012;-81
2021/08/13 02:30:52;;;;;;;17.45;3.22;;;13.90;99.90;;;;;;6208072;23;20020;-82
2021/08/13 02:33:27;;;;;;;16.98;3.30;;;13.80;99.90;;;;;;6185983;22;20013;-81
2021/08/13 02:36:05;;;;;;;;;;;13.80;99.90;;;;;;6212714;23;20023;-81
2021/08/13 02:38:38;;;;;;;16.98;3.30;;;13.80;99.90;;;;;;6217598;22;20244;-82
2021/08/13 02:41:08;;;;;;;17.23;3.97;;;13.80;99.90;;;;;;6191793;23;20398;-82
2021/08/13 02:43:44;;;;;;;10.75;3.15;;;13.80;99.90;;;;;;6191492;23;20360;-81
2021/08/13 02:46:14;;;;;;;16.83;3.97;;;13.80;99.90;;;;;;6185700;23;20020;-81
2021/08/13 02:48:46;;;;;;;13.75;3.33;;;13.80;99.90;;;;;;6193332;23;20020;-82
2021/08/13 02:51:25;;;;;;;15.50;3.13;;;13.80;99.90;;;;;;6211476;23;20023;-81
2021/08/13 02:53:54;;;;;;;22.75;3.70;;;13.80;99.90;;;;;;6205115;23;20028;-80
2021/08/13 02:56:28;;;;;;;14.77;3.85;;;13.80;99.90;;;;;;6197549;23;20024;-81
2021/08/13 02:59:02;;;;;;;18.77;4.00;;;13.80;99.90;;;;;;6208164;23;20017;-82
2021/08/13 03:01:34;;;;;;;15.68;4.20;;;13.80;99.90;;;;;;6172562;23;20095;-81
2021/08/13 03:04:04;;;;;;;18.42;4.30;;;13.80;99.90;;;;;;6203515;23;20016;-82
2021/08/13 03:06:38;;;;;;;13.75;4.25;;;13.80;99.90;;;;;;6225839;23;20021;-80
2021/08/13 03:09:10;;;;;;;24.45;4.38;;;13.80;99.90;;;;;;6213345;23;20033;-81
2021/08/13 03:11:39;;;;;;;15.15;3.70;;;13.80;99.90;;;;;;6203107;23;20448;-82
2021/08/13 03:14:08;;;;;;;15.57;4.15;;;13.80;99.90;;;;;;6213307;23;20025;-80
2021/08/13 03:16:41;;;;;;;16.75;3.78;;;13.80;99.90;;;;;;6202667;23;20027;-80
2021/08/13 03:19:09;;;;;;;19.63;3.85;;;13.80;99.90;;;;;;6199388;23;20329;-81
2021/08/13 03:21:39;;;;;;;13.00;3.88;;;13.80;99.90;;;;;;6175102;23;20016;-82
2021/08/13 03:24:06;;;;;;;14.40;4.35;;;13.80;99.90;;;;;;6178331;22;20029;-82
2021/08/13 03:26:34;;;;;;;17.20;4.10;;;13.80;99.90;;;;;;6214373;23;20031;-81
2021/08/13 03:29:03;;;;;;;14.90;4.35;;;13.80;99.90;;;;;;6208960;23;20024;-80
2021/08/13 03:31:33;;;;;;;17.33;3.80;;;13.80;99.90;;;;;;6201403;23;20020;-83
2021/08/13 03:34:03;;;;;;;14.73;3.30;;;13.80;99.90;;;;;;6200898;23;20071;-80
2021/08/13 03:36:31;;;;;;;11.57;3.00;;;13.80;99.90;;;;;;6213502;23;20059;-80
2021/08/13 03:38:58;;;;;;;16.40;3.40;;;13.70;99.90;;;;;;6214204;23;20020;-79
2021/08/13 03:41:25;;;;;;;10.90;3.42;;;13.70;99.90;;;;;;6238126;23;20079;-81
2021/08/13 03:43:55;;;;;;;13.85;3.75;;;13.70;99.90;;;;;;6214223;23;20138;-81
2021/08/13 03:46:23;;;;;;;11.88;3.65;;;13.60;99.90;;;;;;6197134;23;20044;-82
2021/08/13 03:48:50;;;;;;;20.13;4.57;;;13.60;99.90;;;;;;6164189;23;20017;-82
2021/08/13 03:51:18;;;;;;;16.83;3.67;;;13.50;99.90;;;;;;6210769;23;20016;-81
2021/08/13 03:53:49;;;;;;;15.73;3.80;;;13.60;99.90;;;;;;6213588;23;20047;-82
2021/08/13 03:56:16;;;;;;;15.20;4.18;;;13.60;99.90;;;;;;6212736;23;20013;-81
2021/08/13 03:58:43;;;;;;;19.13;4.38;;;13.60;99.90;;;;;;6214245;23;20385;-81
2021/08/13 04:01:10;;;;;;;17.35;4.20;;;13.60;99.90;;;;;;6200291;23;20318;-82
2021/08/13 04:03:41;;;;;;;18.48;3.72;;;13.70;99.90;;;;;;6198957;23;20012;-81
2021/08/13 04:06:10;;;;;;;;;;;13.60;99.90;;;;;;6198440;23;20017;-82
2021/08/13 04:08:37;;;;;;;15.77;3.78;;;13.60;99.90;;;;;;6203338;23;19946;-82
2021/08/13 04:11:09;;;;;;;11.60;3.45;;;13.60;99.90;;;;;;6237735;23;20021;-81
2021/08/13 04:13:36;;;;;;;13.18;3.55;;;13.60;99.90;;;;;;6213566;23;20093;-81
2021/08/13 04:16:04;;;;;;;17.17;3.70;;;13.50;99.90;;;;;;6214233;23;20096;-82
2021/08/13 04:18:34;;;;;;;22.42;4.55;;;13.50;99.90;;;;;;6187546;23;20098;-82
2021/08/13 04:21:05;;;;;;;17.38;4.22;;;13.50;99.90;;;;;;6213297;23;20023;-80
2021/08/13 04:23:36;;;;;;;12.57;3.85;;;13.50;99.90;;;;;;6212487;23;20020;-82
2021/08/13 04:26:06;;;;;;;16.95;4.05;;;13.50;99.90;;;;;;6213031;23;20325;-82
2021/08/13 04:28:35;;;;;;;18.85;4.32;;;13.60;99.90;;;;;;6199688;23;20031;-82
2021/08/13 04:31:03;;;;;;;18.85;4.35;;;13.60;99.90;;;;;;6207236;23;20032;-80
2021/08/13 04:33:34;;;;;;;18.25;4.82;;;13.60;99.90;;;;;;6236591;22;20024;-80
2021/08/13 04:36:17;;;;;;;17.83;4.60;;;13.60;99.90;;;;;;6198214;23;20496;-81
2021/08/13 04:38:44;;;;;;;18.45;3.97;;;13.60;99.90;;;;;;6210183;23;20017;-82
2021/08/13 04:41:28;;;;;;;;;;;13.70;99.90;;;;;;6171722;22;20027;-81
2021/08/13 04:44:06;;;;;;;11.35;3.22;;;13.70;99.90;;;;;;6190786;23;19915;-80
2021/08/13 04:46:37;;;;;;;6.93;2.78;;;13.70;99.90;;;;;;6176282;23;20027;-82
2021/08/13 04:49:15;;;;;;;6.50;2.95;;;13.60;99.90;;;;;;6199368;22;20496;-79
2021/08/13 04:51:51;;;;;;;7.88;2.70;;;13.50;99.90;;;;;;6174622;23;20020;-82
2021/08/13 04:54:19;;;;;;;20.88;2.80;;;13.40;99.90;;;;;;6181778;22;20025;-82
2021/08/13 04:56:48;;;;;;;;;;;13.30;99.90;;;;;;6175229;23;20019;-82
2021/08/13 04:59:17;;;;;;;26.38;2.70;;;13.20;99.90;;;;;;6197664;23;19916;-79
2021/08/13 05:01:55;;;;;;;8.23;2.60;;;13.20;99.90;;;;;;6190596;23;20095;-81
2021/08/13 05:04:29;;;;;;;7.38;2.53;;;13.10;99.90;;;;;;6181891;23;20308;-82
2021/08/13 05:06:56;;;;;;;5.20;2.67;;;13.00;99.90;;;;;;6183126;23;20092;-81
2021/08/13 05:09:25;;;;;;;6.55;2.92;;;12.90;99.90;;;;;;6181755;23;20019;-82
2021/08/13 05:11:57;;;;;;;12.48;3.58;;;12.90;99.90;;;;;;6169900;23;20025;-82
2021/08/13 05:14:27;;;;;;;18.88;3.60;;;12.80;99.90;;;;;;6181141;23;20044;-80
2021/08/13 05:16:54;;;;;;;21.33;4.10;;;12.80;99.90;;;;;;6169414;23;20040;-82
2021/08/13 05:19:29;;;;;;;14.13;3.30;;;12.80;99.90;;;;;;6154795;23;20031;-82
2021/08/13 05:22:11;;;;;;;13.57;4.18;;;12.80;99.90;;;;;;6142922;23;20060;-82
2021/08/13 05:24:42;;;;;;;7.57;2.38;;;12.80;99.90;;;;;;6191911;23;20326;-81
2021/08/13 05:27:14;;;;;;;9.18;3.00;;;12.80;99.90;;;;;;6181868;23;20021;-82
2021/08/13 05:29:41;;;;;;;13.02;3.28;;;12.80;99.90;;;;;;6182365;23;20013;-81
2021/08/13 05:32:24;;;;;;;18.20;4.00;;;12.70;99.90;;;;;;6181779;23;20068;-82
2021/08/13 05:34:55;;;;;;;12.45;3.47;;;12.70;99.90;;;;;;6173561;23;20469;-82
2021/08/13 05:37:26;;;;;;;20.30;4.90;;;12.70;99.90;;;;;;6171754;23;20270;-81
2021/08/13 05:39:56;;;;;;;20.17;5.22;;;12.70;99.90;;;;;;6170440;23;20024;-80
2021/08/13 05:42:27;;;;;;;11.32;4.32;;;12.70;99.90;;;;;;6194813;22;20381;-79
2021/08/13 05:44:54;;;;;;;10.15;4.68;;;12.70;99.90;;;;;;6170004;23;20036;-80
2021/08/13 05:47:23;;;;;;;10.18;4.90;;;12.70;99.90;;;;;;6173194;23;20017;-79
2021/08/13 05:49:51;;;;;;;16.40;4.43;;;12.80;99.90;;;;;;6187194;23;20020;-82
2021/08/13 05:52:19;;;;;;;8.70;3.55;;;12.80;99.90;;;;;;6211443;23;20020;-81
2021/08/13 05:54:46;;;;;;;12.63;4.22;;;12.90;99.90;;;;;;6191625;23;20048;-81
2021/08/13 05:57:13;;;;;;;18.15;4.55;;;12.90;99.90;;;;;;6160570;23;20020;-82
2021/08/13 05:59:44;;;;;;;19.30;4.93;;;12.90;99.90;;;;;;6212711;23;20310;-81
2021/08/13 06:02:15;;;;;;;25.85;4.93;;;13.00;99.90;;;;;;6211392;23;20028;-82
2021/08/13 06:04:45;;;;;;;19.33;4.55;;;13.00;99.90;;;;;;6180004;23;20092;-79
2021/08/13 06:07:12;;;;;;;38.75;6.10;;;13.10;99.90;;;;;;6181679;23;20036;-80
2021/08/13 06:09:40;;;;;;;32.72;5.95;;;13.20;99.90;;;;;;6182958;23;20021;-82
2021/08/13 06:12:13;;;;;;;60.88;6.03;;;13.20;99.90;;;;;;6168561;23;20373;-82
2021/08/13 06:14:45;;;;;;;85.72;6.45;;;13.30;99.90;;;;;;6159276;23;20013;-82
2021/08/13 06:17:18;;;;;;;61.97;5.93;;;13.40;99.90;;;;;;6132611;23;20449;-82
2021/08/13 06:20:05;;;;;;;;;;;;;;;;;;;;;
2021/08/13 06:22:44;;;;;;;72.78;5.85;;;13.50;99.90;;;;;;6161078;23;20016;-83
2021/08/13 06:25:17;;;;;;;55.25;5.90;;;13.70;99.90;;;;;;6154316;23;20021;-82
2021/08/13 06:28:01;;;;;;;;;;;;;;;;;;;;;
2021/08/13 06:30:53;;;;;;;59.97;5.43;;;13.80;99.90;;;;;;6168955;23;20024;-83
2021/08/13 06:33:32;;;;;;;43.55;5.65;;;13.90;99.90;;;;;;6140398;22;20024;-82
2021/08/13 06:36:03;;;;;;;42.22;6.13;;;14.00;99.90;;;;;;6185459;23;20020;-82
2021/08/13 06:39:01;;;;;;;;;;;;;;;;;;;;;
2021/08/13 06:41:37;;;;;;;25.55;5.25;;;14.10;99.90;;;;;;6061332;23;20033;-82
2021/08/13 06:44:20;;;;;;;29.15;5.35;;;14.10;99.90;;;;;;6068477;23;20524;-82
2021/08/13 06:47:02;;;;;;;15.32;5.65;;;14.20;99.90;;;;;;6164007;23;20099;-80
2021/08/13 06:49:58;;;;;;;;;;;;;;;;;;;;;
2021/08/13 06:53:22;;;;;;;;;;;;;;;;;;;;;
2021/08/13 06:56:18;;;;;;;11.85;5.38;;;14.50;99.90;;;;;;5898263;23;20025;-82
2021/08/13 06:59:03;;;;;;;12.05;5.10;;;14.60;99.90;;;;;;5936140;23;20105;-82
2021/08/13 07:01:57;;;;;;;6.18;4.47;;;14.60;99.90;;;;;;5886300;24;20040;-82
2021/08/13 07:04:50;;;;;;;8.52;4.57;;;14.70;99.90;;;;;;5838259;24;20521;-83
2021/08/13 07:07:54;;;;;;;7.30;4.20;;;14.70;99.90;;;;;;5778720;24;20100;-82
2021/08/13 07:10:55;;;;;;;;;;;;;;;;;;;;;
2021/08/13 07:13:39;;;;;;;7.10;3.88;;;14.90;99.90;;;;;;5834133;24;20029;-81
2021/08/13 07:17:01;;;;;;;9.73;4.15;;;15.00;99.90;;;;;;5852471;24;20050;-81
2021/08/13 07:19:38;;;;;;;6.23;3.60;;;15.10;99.90;;;;;;5803838;24;20498;-84
2021/08/13 07:25:37;;;;;;;4.65;2.80;;;15.30;99.90;;;;;;5839873;24;20026;-82
2021/08/13 07:28:35;;;;;;;6.47;3.80;;;15.40;99.90;;;;;;5883918;24;20024;-82
2021/08/13 07:31:56;;;;;;;;;;;;;;;;;;;;;
2021/08/13 07:38:25;;;;;;;;;;;;;;;;;;;;;
2021/08/13 07:41:52;;;;;;;;;;;;;;;;;;;;;
2021/08/13 08:01:39;;;;;;;6.95;3.83;;;17.10;99.90;;;;;;5104488;27;20423;-81
2021/08/13 08:04:50;;;;;;;;;;;;;;;;;;;;;
2021/08/13 08:08:08;;;;;;;9.75;4.63;;;17.20;99.90;;;;;;5011449;28;20096;-82
2021/08/13 08:10:46;;;;;;;10.27;4.88;;;17.30;99.90;;;;;;5027498;28;20040;-83
2021/08/13 08:13:19;;;;;;;7.38;4.20;;;17.30;99.90;;;;;;5052761;28;20079;-82
2021/08/13 08:16:02;;;;;;;9.25;4.70;;;17.50;99.90;;;;;;5070245;28;20044;-83
2021/08/13 08:18:34;;;;;;;7.50;4.90;;;17.70;99.90;;;;;;5081160;28;20047;-83
2021/08/13 08:21:31;;;;;;;;;;;;;;;;;;;;;
2021/08/13 08:25:17;;;;;;;10.45;5.43;;;18.10;99.90;;;;;;5115334;27;20078;-81
2021/08/13 08:28:08;;;;;;;9.35;5.28;;;18.30;99.90;;;;;;5088358;28;20556;-81
2021/08/13 08:31:59;;;;;;;13.05;6.25;;;18.50;99.90;;;;;;4997213;28;20048;-83
2021/08/13 09:03:24;;;;;;;;;;;;;;;;;;;;;
2021/08/13 09:10:11;;;;;;;;;;;;;;;;;;;;;
2021/08/13 09:39:45;;;;;;;;;;;;;;;;;;;;;
2021/08/13 18:58:51;;;;;;;;;;;;;;;;;;;;;
2021/08/13 19:02:23;;;;;;;;;;;;;;;;;;;;;
2021/08/13 19:05:33;;;;;;;7.78;3.22;;;25.70;96.30;;;;;;6012846;23;20027;-83
2021/08/13 19:08:28;;;;;;;7.15;3.25;;;24.90;97.50;;;;;;6062667;23;21629;-81
2021/08/13 19:11:00;;;;;;;12.05;3.47;;;24.30;98.30;;;;;;6097445;23;20446;-83
2021/08/13 19:13:34;;;;;;;7.65;2.70;;;23.80;99.00;;;;;;6092579;23;20025;-81
2021/08/13 19:16:07;;;;;;;12.07;3.33;;;23.40;99.90;;;;;;6119375;23;20017;-79
2021/08/13 19:18:38;;;;;;;10.10;3.45;;;23.00;99.90;;;;;;6130781;23;20035;-80
2021/08/13 19:21:06;;;;;;;11.57;3.38;;;22.60;99.90;;;;;;6152133;23;20350;-83
2021/08/13 19:23:42;;;;;;;8.52;3.03;;;22.30;99.90;;;;;;6153594;23;20068;-83
2021/08/13 19:26:12;;;;;;;9.00;3.60;;;22.00;99.90;;;;;;6152858;23;20041;-82
2021/08/13 19:28:41;;;;;;;9.57;3.33;;;21.80;99.90;;;;;;6153905;23;20021;-80
2021/08/13 19:31:08;;;;;;;10.10;3.17;;;21.50;99.90;;;;;;6153523;23;20025;-83
2021/08/13 19:33:41;;;;;;;8.80;3.58;;;21.30;99.90;;;;;;6132086;23;20020;-80
2021/08/13 19:36:15;;;;;;;8.55;3.30;;;21.10;99.90;;;;;;6089273;23;20022;-82
2021/08/13 19:39:04;;;;;;;10.70;3.70;;;20.90;99.90;;;;;;6112751;23;20029;-82
2021/08/13 19:41:42;;;;;;;14.02;3.70;;;20.70;99.90;;;;;;6126987;23;20025;-81
2021/08/13 19:44:29;;;;;;;15.65;4.70;;;20.50;99.90;;;;;;6132766;23;20021;-81
2021/08/13 19:47:12;;;;;;;12.80;3.65;;;20.30;99.90;;;;;;6142198;23;20031;-83
2021/08/13 19:49:48;;;;;;;10.15;3.85;;;19.90;99.90;;;;;;6177850;23;20048;-82
2021/08/13 19:52:17;;;;;;;15.52;4.05;;;19.70;99.90;;;;;;6212649;23;20025;-80
2021/08/13 19:54:45;;;;;;;9.70;3.60;;;19.50;99.90;;;;;;6213840;23;20017;-81
2021/08/13 19:57:12;;;;;;;14.50;4.20;;;19.30;99.90;;;;;;6200361;23;20021;-80
2021/08/13 19:59:42;;;;;;;12.25;3.67;;;19.10;99.90;;;;;;6201140;23;20020;-80
2021/08/13 20:02:12;;;;;;;13.82;4.25;;;19.00;99.90;;;;;;6203684;23;20020;-82
2021/08/13 20:04:41;;;;;;;14.73;4.30;;;18.80;99.90;;;;;;6218617;23;20456;-82
2021/08/13 20:07:11;;;;;;;14.25;3.95;;;18.70;99.90;;;;;;6200926;23;20102;-81
2021/08/13 20:09:42;;;;;;;11.98;4.63;;;18.60;99.90;;;;;;6219303;23;20027;-80
2021/08/13 20:12:13;;;;;;;12.18;4.57;;;18.50;99.90;;;;;;6204676;23;20016;-81
2021/08/13 20:14:41;;;;;;;13.80;4.47;;;18.30;99.90;;;;;;6218973;23;20202;-82
2021/08/13 20:17:09;;;;;;;13.53;4.50;;;18.20;99.90;;;;;;6204594;23;20433;-82
2021/08/13 20:19:46;;;;;;;;;;;;;;;;;;;;;
2021/08/13 20:22:18;;;;;;;9.15;4.20;;;18.10;99.90;;;;;;6230653;23;20403;-80
2021/08/13 20:24:49;;;;;;;12.68;4.72;;;18.00;99.90;;;;;;6218961;23;20259;-80
2021/08/13 20:27:17;;;;;;;12.50;4.05;;;17.90;99.90;;;;;;6173530;23;20083;-82
2021/08/13 20:29:54;;;;;;;13.20;4.25;;;17.90;99.90;;;;;;6204658;23;20047;-81
2021/08/13 20:32:22;;;;;;;19.00;4.25;;;17.80;99.90;;;;;;6203575;23;20019;-79
2021/08/13 20:34:53;;;;;;;13.95;4.55;;;17.70;99.90;;;;;;6218025;23;20016;-80
2021/08/13 20:37:20;;;;;;;15.15;4.20;;;17.60;99.90;;;;;;6203260;23;20449;-81
2021/08/13 20:39:53;;;;;;;16.10;4.10;;;17.60;99.90;;;;;;6206078;23;20020;-81
2021/08/13 20:42:23;;;;;;;17.65;4.63;;;17.50;99.90;;;;;;6190804;23;20020;-82
2021/08/13 20:44:53;;;;;;;15.70;4.15;;;17.40;99.90;;;;;;6217857;23;20329;-82
2021/08/13 20:47:26;;;;;;;16.80;4.35;;;17.40;99.90;;;;;;6167093;23;20024;-82
2021/08/13 20:50:16;;;;;;;16.33;4.25;;;17.30;99.90;;;;;;6188824;23;20428;-81
2021/08/13 20:52:46;;;;;;;10.93;4.63;;;17.20;99.90;;;;;;6200858;23;20020;-80
2021/08/13 20:55:24;;;;;;;11.15;3.78;;;17.10;99.90;;;;;;6188656;23;20013;-83
2021/08/13 20:58:00;;;;;;;18.15;4.85;;;17.10;99.90;;;;;;6218163;23;20031;-80
2021/08/13 21:00:33;;;;;;;10.85;3.95;;;17.10;99.90;;;;;;6202950;23;20384;-83
2021/08/13 21:03:03;;;;;;;11.50;3.90;;;17.00;99.90;;;;;;6204364;23;20023;-82
2021/08/13 21:05:32;;;;;;;14.57;4.05;;;17.00;99.90;;;;;;6192411;23;20012;-83
2021/08/13 21:08:29;;;;;;;14.70;4.25;;;16.90;99.90;;;;;;6086871;23;20022;-82
2021/08/13 21:11:04;;;;;;;16.02;3.80;;;16.90;99.90;;;;;;6097935;23;20045;-81
2021/08/13 21:13:31;;;;;;;11.85;3.88;;;16.90;99.90;;;;;;6078143;23;20113;-80
2021/08/13 21:16:06;;;;;;;12.45;3.72;;;16.90;99.90;;;;;;6050501;23;20015;-77
2021/08/13 21:18:36;;;;;;;12.48;3.80;;;16.80;99.90;;;;;;6097805;23;20485;-82
2021/08/13 21:21:05;;;;;;;13.27;3.92;;;16.80;99.90;;;;;;6070043;23;20018;-83
2021/08/13 21:23:38;;;;;;;14.20;3.92;;;16.80;99.90;;;;;;6097002;23;20032;-81
2021/08/13 21:26:09;;;;;;;15.07;4.00;;;16.80;99.90;;;;;;6129382;23;20068;-82
2021/08/13 21:28:37;;;;;;;10.23;3.58;;;16.70;99.90;;;;;;6205011;23;20448;-81
2021/08/13 21:31:04;;;;;;;14.23;4.03;;;16.70;99.90;;;;;;6216790;23;20016;-81
2021/08/13 21:33:36;;;;;;;15.20;4.00;;;16.70;99.90;;;;;;6203450;23;20099;-79
2021/08/13 21:36:09;;;;;;;8.73;3.85;;;16.70;99.90;;;;;;6217050;23;20074;-82
2021/08/13 21:38:42;;;;;;;13.60;3.90;;;16.80;99.90;;;;;;6217480;23;20024;-81
2021/08/13 21:41:27;;;;;;;;;;;;;;;;;;;;;
2021/08/13 21:43:59;;;;;;;14.90;3.88;;;16.80;99.90;;;;;;6220770;23;20024;-82
2021/08/13 21:46:34;;;;;;;11.95;3.83;;;16.80;99.90;;;;;;6188549;23;20030;-81
2021/08/13 21:49:09;;;;;;;12.82;3.97;;;16.80;99.90;;;;;;6217042;23;20026;-78
2021/08/13 21:51:37;;;;;;;15.30;4.13;;;16.80;99.90;;;;;;6218011;23;20044;-82
2021/08/13 21:54:09;;;;;;;14.77;4.45;;;16.80;99.90;;;;;;6202117;23;20337;-79
2021/08/13 21:56:36;;;;;;;11.88;3.88;;;16.80;99.90;;;;;;6217269;23;20082;-82
2021/08/13 21:59:13;;;;;;;13.02;4.78;;;16.80;99.90;;;;;;6166733;23;20028;-83
2021/08/13 22:01:44;;;;;;;16.55;3.92;;;16.80;99.90;;;;;;6159821;23;20027;-83
2021/08/13 22:04:22;;;;;;;14.40;3.78;;;16.90;99.90;;;;;;6187981;23;20025;-80
2021/08/13 22:06:49;;;;;;;14.40;3.90;;;16.90;99.90;;;;;;6187750;23;20012;-82
2021/08/13 22:09:19;;;;;;;11.90;4.43;;;16.90;99.90;;;;;;6172379;23;20107;-83
2021/08/13 22:11:53;;;;;;;15.15;4.68;;;16.90;99.90;;;;;;6188469;23;20026;-82
2021/08/13 22:14:22;;;;;;;12.05;4.47;;;16.90;99.90;;;;;;6175245;23;20021;-82
2021/08/13 22:16:49;;;;;;;15.55;4.28;;;16.90;99.90;;;;;;6187044;23;20020;-82
2021/08/13 22:19:16;;;;;;;17.23;4.15;;;17.00;99.90;;;;;;6186265;23;20464;-81
2021/08/13 22:21:52;;;;;;;15.90;4.70;;;17.00;99.90;;;;;;6176069;23;20437;-83
2021/08/13 22:24:19;;;;;;;15.57;4.63;;;16.90;99.90;;;;;;6158486;23;20021;-81
2021/08/13 22:26:48;;;;;;;15.23;4.97;;;17.00;99.90;;;;;;6176586;23;20026;-82
2021/08/13 22:29:22;;;;;;;19.98;4.53;;;17.00;99.90;;;;;;6187483;23;20021;-82
2021/08/13 22:31:57;;;;;;;15.73;4.28;;;17.00;99.90;;;;;;6176063;23;20023;-83
2021/08/13 22:34:50;;;;;;;;;;;;;;;;;;;;;
2021/08/13 22:37:41;;;;;;;16.63;4.80;;;17.00;99.90;;;;;;6148136;23;20084;-82
2021/08/13 22:40:42;;;;;;;16.88;4.90;;;17.00;99.90;;;;;;6160608;23;20021;-82
2021/08/13 22:43:18;;;;;;;23.33;5.63;;;17.00;99.90;;;;;;6185233;23;20075;-82
2021/08/13 22:45:52;;;;;;;13.73;4.40;;;16.90;99.90;;;;;;6171490;23;20048;-82
2021/08/13 22:48:23;;;;;;;20.48;5.15;;;16.90;99.90;;;;;;6142084;23;20021;-81
2021/08/13 22:50:50;;;;;;;18.83;4.82;;;16.90;99.90;;;;;;6168179;23;20017;-82
2021/08/13 22:53:20;;;;;;;15.52;4.70;;;16.90;99.90;;;;;;6187141;23;20025;-81
2021/08/13 22:55:48;;;;;;;15.65;4.80;;;16.90;99.90;;;;;;6172595;23;20020;-82
2021/08/13 22:58:17;;;;;;;18.83;4.57;;;16.90;99.90;;;;;;6138383;23;20021;-82
2021/08/13 23:00:46;;;;;;;16.80;5.05;;;16.90;99.90;;;;;;6174823;23;20036;-82
2021/08/13 23:03:13;;;;;;;13.50;4.25;;;16.90;99.90;;;;;;6176530;23;20456;-82
2021/08/13 23:05:47;;;;;;;22.38;5.05;;;16.90;99.90;;;;;;6169675;23;20021;-82
2021/08/13 23:08:20;;;;;;;21.15;5.28;;;16.90;99.90;;;;;;6161856;23;20365;-82
2021/08/13 23:11:12;;;;;;;15.95;4.68;;;16.90;99.90;;;;;;6137697;23;20138;-82
2021/08/13 23:14:14;;;;;;;19.08;4.55;;;16.90;99.90;;;;;;6113330;23;20105;-82
2021/08/13 23:17:41;;;;;;;13.80;5.03;;;16.90;99.90;;;;;;5894419;24;20028;-85
2021/08/13 23:20:46;;;;;;;20.45;5.88;;;16.90;99.90;;;;;;5880428;24;20029;-84
2021/08/13 23:23:30;;;;;;;19.58;5.63;;;16.90;99.90;;;;;;5829210;24;20029;-84
2021/08/13 23:26:15;;;;;;;17.20;5.18;;;16.90;99.90;;;;;;5808600;24;20034;-83
2021/08/13 23:28:53;;;;;;;18.40;5.22;;;16.90;99.90;;;;;;5861356;24;20110;-84
2021/08/13 23:31:39;;;;;;;12.82;5.22;;;16.90;99.90;;;;;;5842189;24;20027;-84
2021/08/13 23:34:32;;;;;;;20.52;5.65;;;16.90;99.90;;;;;;5868704;23;20024;-83
2021/08/13 23:36:59;;;;;;;21.77;5.13;;;16.90;99.90;;;;;;5960722;24;20024;-83
2021/08/13 23:39:39;;;;;;;17.20;5.57;;;16.90;99.90;;;;;;5900037;23;20099;-82
2021/08/13 23:42:35;;;;;;;15.35;5.07;;;16.80;99.90;;;;;;5928591;23;20060;-82
2021/08/13 23:45:29;;;;;;;;;;;;;;;;;;;;;
2021/08/13 23:48:37;;;;;;;;;;;;;;;;;;;;;
